createdAt,value
2018-10-06T00:01:18.955Z,12.35
2018-10-06T00:07:24.096Z,12.32
2018-10-06T00:13:29.163Z,12.06
2018-10-06T00:19:33.761Z,11.79
2018-10-06T00:25:38.680Z,11.57
2018-10-06T00:31:43.334Z,11.18
2018-10-06T00:37:48.310Z,11.15
2018-10-06T00:43:52.935Z,11.09
2018-10-06T00:49:57.882Z,10.67
2018-10-06T00:56:02.704Z,10.57
2018-10-06T01:02:07.412Z,10.64
2018-10-06T01:08:12.091Z,10.66
2018-10-06T01:14:16.722Z,10.71
2018-10-06T01:20:21.683Z,10.53
2018-10-06T01:26:26.823Z,10.76
2018-10-06T01:32:31.447Z,10.35
2018-10-06T01:38:36.374Z,10.57
2018-10-06T01:44:41.048Z,10.35
2018-10-06T01:50:45.688Z,10.40
2018-10-06T01:56:50.385Z,10.51
2018-10-06T02:02:55.862Z,10.56
2018-10-06T02:09:00.510Z,10.72
2018-10-06T02:15:05.150Z,10.48
2018-10-06T02:21:10.164Z,10.41
2018-10-06T02:27:14.796Z,10.43
2018-10-06T02:33:19.762Z,10.51
2018-10-06T02:39:24.429Z,10.52
2018-10-06T02:45:29.070Z,10.53
2018-10-06T02:51:33.697Z,10.55
2018-10-06T02:57:38.418Z,10.65
2018-10-06T03:03:43.035Z,10.59
2018-10-06T03:09:47.714Z,10.84
2018-10-06T03:15:52.320Z,10.56
2018-10-06T03:21:56.905Z,10.82
2018-10-06T03:28:01.505Z,10.66
2018-10-06T03:34:06.130Z,10.48
2018-10-06T03:40:10.749Z,10.48
2018-10-06T03:46:15.404Z,10.13
2018-10-06T03:52:20.691Z,10.07
2018-10-06T03:58:25.389Z,10.00
2018-10-06T04:04:30.009Z,9.77
2018-10-06T04:10:34.607Z,9.69
2018-10-06T04:16:39.173Z,9.70
2018-10-06T04:22:43.742Z,9.63
2018-10-06T04:28:48.379Z,9.64
2018-10-06T04:34:53.038Z,9.64
2018-10-06T04:40:57.690Z,9.49
2018-10-06T04:47:02.322Z,9.50
2018-10-06T04:53:07.267Z,9.48
2018-10-06T04:59:11.944Z,9.21
2018-10-06T05:05:16.898Z,9.23
2018-10-06T05:11:21.834Z,9.00
2018-10-06T05:17:26.445Z,8.82
2018-10-06T05:23:31.457Z,8.61
2018-10-06T05:29:36.418Z,8.79
2018-10-06T05:35:41.041Z,8.65
2018-10-06T05:41:45.719Z,8.52
2018-10-06T05:47:50.314Z,8.83
2018-10-06T05:53:55.275Z,8.85
2018-10-06T06:00:00.002Z,9.02
2018-10-06T06:06:04.715Z,9.29
2018-10-06T06:12:09.334Z,9.20
2018-10-06T06:18:14.081Z,9.27
2018-10-06T06:24:19.074Z,9.52
2018-10-06T06:30:24.006Z,9.70
2018-10-06T06:36:28.655Z,9.83
2018-10-06T06:42:33.690Z,9.84
2018-10-06T06:48:38.437Z,10.08
2018-10-06T06:54:43.426Z,10.14
2018-10-06T07:00:48.062Z,10.34
2018-10-06T07:06:52.922Z,10.27
2018-10-06T07:12:57.586Z,10.29
2018-10-06T07:19:02.218Z,10.48
2018-10-06T07:25:07.185Z,10.67
2018-10-06T07:31:11.822Z,11.46
2018-10-06T07:37:16.544Z,11.62
2018-10-06T07:43:21.206Z,11.73
2018-10-06T07:49:25.867Z,12.15
2018-10-06T07:55:30.515Z,12.50
2018-10-06T08:01:35.174Z,12.52
2018-10-06T08:07:39.891Z,12.59
2018-10-06T08:13:44.560Z,12.78
2018-10-06T08:19:49.809Z,13.08
2018-10-06T08:25:54.478Z,13.08
2018-10-06T08:31:59.147Z,13.43
2018-10-06T08:38:03.751Z,13.83
2018-10-06T08:44:08.437Z,13.89
2018-10-06T08:50:13.024Z,14.18
2018-10-06T08:56:17.738Z,14.47
2018-10-06T09:02:22.340Z,15.02
2018-10-06T09:08:26.989Z,15.01
2018-10-06T09:14:31.689Z,15.49
2018-10-06T09:20:36.763Z,17.87
2018-10-06T09:26:42.216Z,22.93
2018-10-06T09:32:46.791Z,25.57
2018-10-06T09:38:55.481Z,26.92
2018-10-06T09:45:00.135Z,28.51
2018-10-06T09:51:04.768Z,29.21
2018-10-06T09:57:09.471Z,29.86
2018-10-06T10:03:19.333Z,30.42
2018-10-06T10:09:23.962Z,27.99
2018-10-06T10:15:28.658Z,25.13
2018-10-06T10:21:33.244Z,23.87
2018-10-06T10:27:37.880Z,23.52
2018-10-06T10:33:42.846Z,24.43
2018-10-06T10:39:47.561Z,26.91
2018-10-06T10:45:52.018Z,28.56
2018-10-06T10:51:56.587Z,30.22
2018-10-06T10:58:01.204Z,30.89
2018-10-06T11:04:05.843Z,31.05
2018-10-06T11:10:10.510Z,31.83
2018-10-06T11:16:15.108Z,31.93
2018-10-06T11:22:20.088Z,32.94
2018-10-06T11:28:24.755Z,33.37
2018-10-06T11:34:29.454Z,33.61
2018-10-06T11:40:34.132Z,33.94
2018-10-06T11:46:38.825Z,34.24
2018-10-06T11:52:43.479Z,34.42
2018-10-06T11:58:48.165Z,33.10
2018-10-06T12:04:52.855Z,31.88
2018-10-06T12:10:57.466Z,32.44
2018-10-06T12:17:02.674Z,33.84
2018-10-06T12:23:07.589Z,32.70
2018-10-06T12:29:12.566Z,33.28
2018-10-06T12:35:17.568Z,32.96
2018-10-06T12:41:22.419Z,33.76
2018-10-06T12:47:27.161Z,34.38
2018-10-06T12:53:31.844Z,34.72
2018-10-06T12:59:36.458Z,34.21
2018-10-06T13:05:41.115Z,33.29
2018-10-06T13:11:45.777Z,32.81
2018-10-06T13:17:50.389Z,33.04
2018-10-06T13:23:55.044Z,33.58
2018-10-06T13:29:59.616Z,34.55
2018-10-06T13:36:04.286Z,32.39
2018-10-06T13:42:09.460Z,33.36
2018-10-06T13:48:14.488Z,33.18
2018-10-06T13:54:19.129Z,32.74
2018-10-06T14:00:24.098Z,32.40
2018-10-06T14:06:28.805Z,33.31
2018-10-06T14:12:33.472Z,31.02
2018-10-06T14:18:38.113Z,31.16
2018-10-06T14:24:43.122Z,31.85
2018-10-06T14:30:47.720Z,33.68
2018-10-06T14:36:52.319Z,33.93
2018-10-06T14:42:57.363Z,34.70
2018-10-06T14:49:01.980Z,34.49
2018-10-06T14:55:08.178Z,34.75
2018-10-06T15:01:12.918Z,33.99
2018-10-06T15:07:17.580Z,33.00
2018-10-06T15:13:22.238Z,31.65
2018-10-06T15:19:26.880Z,31.53
2018-10-06T15:25:31.545Z,31.24
2018-10-06T15:31:36.186Z,30.09
2018-10-06T15:37:40.856Z,28.52
2018-10-06T15:43:45.788Z,28.49
2018-10-06T15:49:50.453Z,28.29
2018-10-06T15:55:55.139Z,27.18
2018-10-06T16:01:59.771Z,26.35
2018-10-06T16:08:04.844Z,25.64
2018-10-06T16:14:09.865Z,24.70
2018-10-06T16:20:14.533Z,23.61
2018-10-06T16:26:19.526Z,23.01
2018-10-06T16:32:24.322Z,22.45
2018-10-06T16:38:31.999Z,22.32
2018-10-06T16:44:36.667Z,21.68
2018-10-06T16:50:41.665Z,21.37
2018-10-06T16:56:46.259Z,21.38
2018-10-06T17:02:50.846Z,20.85
2018-10-06T17:08:55.500Z,20.71
2018-10-06T17:15:00.130Z,20.62
2018-10-06T17:21:04.817Z,20.39
2018-10-06T17:27:09.523Z,20.02
2018-10-06T17:33:14.149Z,20.01
2018-10-06T17:39:19.351Z,19.83
2018-10-06T17:45:24.077Z,19.46
2018-10-06T17:51:28.725Z,19.29
2018-10-06T17:57:33.393Z,19.01
2018-10-06T18:03:37.985Z,19.05
2018-10-06T18:09:42.958Z,18.79
2018-10-06T18:15:47.920Z,18.78
2018-10-06T18:21:59.211Z,18.67
2018-10-06T18:28:04.197Z,18.82
2018-10-06T18:34:08.843Z,18.63
2018-10-06T18:40:13.888Z,18.73
2018-10-06T18:46:18.501Z,18.65
2018-10-06T18:52:23.571Z,18.57
2018-10-06T18:58:28.241Z,18.53
2018-10-06T19:04:32.887Z,18.32
2018-10-06T19:10:38.282Z,18.08
2018-10-06T19:16:42.910Z,18.27
2018-10-06T19:22:47.549Z,18.21
2018-10-06T19:28:52.252Z,18.09
2018-10-06T19:34:56.961Z,18.00
2018-10-06T19:41:01.864Z,18.11
2018-10-06T19:47:06.588Z,17.80
2018-10-06T19:53:11.199Z,17.66
2018-10-06T19:59:15.941Z,17.45
2018-10-06T20:05:20.555Z,17.42
2018-10-06T20:11:25.285Z,17.41
2018-10-06T20:17:30.029Z,17.34
2018-10-06T20:23:35.050Z,17.32
2018-10-06T20:29:40.167Z,17.37
2018-10-06T20:35:44.827Z,17.41
2018-10-06T20:41:49.791Z,17.48
2018-10-06T20:47:54.444Z,17.30
2018-10-06T20:53:59.030Z,17.44
2018-10-06T21:00:03.697Z,17.39
2018-10-06T21:06:08.750Z,17.43
2018-10-06T21:12:14.073Z,17.17
2018-10-06T21:18:18.875Z,17.02
2018-10-06T21:24:23.504Z,17.10
2018-10-06T21:30:28.512Z,16.83
2018-10-06T21:36:33.127Z,16.79
2018-10-06T21:42:37.781Z,16.88
2018-10-06T21:48:42.411Z,16.37
2018-10-06T21:54:47.374Z,16.27
2018-10-06T22:00:57.298Z,16.02
2018-10-06T22:07:01.928Z,15.87
2018-10-06T22:13:06.879Z,15.56
2018-10-06T22:19:11.469Z,15.52
2018-10-06T22:25:16.090Z,15.71
2018-10-06T22:31:21.026Z,15.44
2018-10-06T22:37:25.738Z,15.60
2018-10-06T22:43:31.107Z,15.57
2018-10-06T22:49:36.027Z,15.52
2018-10-06T22:55:41.047Z,15.41
2018-10-06T23:01:46.452Z,15.37
2018-10-06T23:07:51.109Z,15.15
2018-10-06T23:13:56.081Z,15.23
2018-10-06T23:20:00.727Z,15.06
2018-10-06T23:26:05.566Z,14.89
2018-10-06T23:32:10.273Z,14.97
2018-10-06T23:38:14.975Z,14.91
2018-10-06T23:44:19.617Z,14.64
2018-10-06T23:50:24.266Z,14.68
2018-10-06T23:56:28.953Z,14.69
